createdAt,value
2022-07-26T00:02:00.396Z,96392.28
2022-07-26T00:04:28.911Z,96386.97
2022-07-26T00:06:56.717Z,96392.06
2022-07-26T00:09:24.490Z,96401.25
2022-07-26T00:11:52.380Z,96396.75
2022-07-26T00:14:20.485Z,96398.81
2022-07-26T00:16:49.944Z,96402.06
2022-07-26T00:19:18.172Z,96408.94
2022-07-26T00:21:45.921Z,96412.66
2022-07-26T00:24:13.689Z,96402.66
2022-07-26T00:26:41.676Z,96406.50
2022-07-26T00:29:09.608Z,96408.13
2022-07-26T00:31:37.583Z,96413.22
2022-07-26T00:34:06.704Z,96418.69
2022-07-26T00:36:34.439Z,96423.31
2022-07-26T00:39:03.942Z,96422.97
2022-07-26T00:41:31.720Z,96430.16
2022-07-26T00:44:01.598Z,96420.81
2022-07-26T00:46:29.659Z,96431.22
2022-07-26T00:48:57.615Z,96434.44
2022-07-26T00:51:26.899Z,96431.53
2022-07-26T00:53:54.687Z,96433.97
2022-07-26T00:56:23.175Z,96440.84
2022-07-26T00:58:50.893Z,96439.41
2022-07-26T01:01:18.743Z,96436.19
2022-07-26T01:03:46.739Z,96443.81
2022-07-26T01:06:14.549Z,96441.56
2022-07-26T01:08:44.006Z,96446.97
2022-07-26T01:11:11.730Z,96444.28
2022-07-26T01:13:46.384Z,96445.28
2022-07-26T01:16:14.151Z,96444.16
2022-07-26T01:18:42.097Z,96443.81
2022-07-26T01:21:14.001Z,96445.75
2022-07-26T01:23:43.943Z,96438.25
2022-07-26T01:26:12.713Z,96443.00
2022-07-26T01:28:42.200Z,96448.88
2022-07-26T01:31:10.043Z,96443.00
2022-07-26T01:33:38.225Z,96444.13
2022-07-26T01:36:06.664Z,96437.00
2022-07-26T01:38:34.363Z,96445.78
2022-07-26T01:41:03.464Z,96445.16
2022-07-26T01:43:31.284Z,96440.94
2022-07-26T01:45:59.126Z,96445.53
2022-07-26T01:48:27.202Z,96447.16
2022-07-26T01:50:54.945Z,96449.13
2022-07-26T01:53:22.674Z,96440.94
2022-07-26T01:55:50.414Z,96441.47
2022-07-26T01:58:19.880Z,96432.03
2022-07-26T02:00:47.598Z,96434.63
2022-07-26T02:03:15.604Z,96437.19
2022-07-26T02:05:43.397Z,96433.03
2022-07-26T02:08:11.743Z,96434.53
2022-07-26T02:10:58.234Z,96439.69
2022-07-26T02:13:27.943Z,96443.53
2022-07-26T02:15:55.805Z,96445.13
2022-07-26T02:18:23.607Z,96440.31
2022-07-26T02:20:51.313Z,96450.09
2022-07-26T02:23:19.388Z,96444.75
2022-07-26T02:25:47.765Z,96440.91
2022-07-26T02:28:15.711Z,96435.44
2022-07-26T02:30:45.272Z,96437.91
2022-07-26T02:33:13.044Z,96437.31
2022-07-26T02:35:41.341Z,96443.44
2022-07-26T02:38:12.075Z,96447.09
2022-07-26T02:40:41.189Z,96446.56
2022-07-26T02:43:10.006Z,96450.50
2022-07-26T02:45:38.465Z,96448.34
2022-07-26T02:48:08.487Z,96445.22
2022-07-26T02:50:36.613Z,96454.84
2022-07-26T02:53:04.444Z,96447.53
2022-07-26T02:55:32.205Z,96442.00
2022-07-26T02:57:59.900Z,96443.81
2022-07-26T03:00:27.795Z,96448.03
2022-07-26T03:02:55.682Z,96444.22
2022-07-26T03:05:24.902Z,96444.63
2022-07-26T03:07:52.642Z,96438.19
2022-07-26T03:10:20.424Z,96443.41
2022-07-26T03:12:48.142Z,96443.03
2022-07-26T03:15:15.971Z,96444.84
2022-07-26T03:17:43.769Z,96453.72
2022-07-26T03:20:13.171Z,96443.81
2022-07-26T03:22:42.244Z,96442.03
2022-07-26T03:25:10.276Z,96449.69
2022-07-26T03:27:38.043Z,96451.91
2022-07-26T03:30:06.840Z,96447.56
2022-07-26T03:32:34.632Z,96450.31
2022-07-26T03:35:02.452Z,96451.78
2022-07-26T03:37:45.143Z,96457.03
2022-07-26T03:40:16.238Z,96454.50
2022-07-26T03:42:44.426Z,96451.28
2022-07-26T03:45:13.102Z,96457.16
2022-07-26T03:47:41.120Z,96462.84
2022-07-26T03:50:10.864Z,96457.94
2022-07-26T03:52:38.623Z,96455.63
2022-07-26T03:55:27.056Z,96459.16
2022-07-26T03:57:55.248Z,96461.00
2022-07-26T04:00:22.976Z,96458.31
2022-07-26T04:02:50.788Z,96459.44
2022-07-26T04:05:23.408Z,96459.13
2022-07-26T04:07:53.295Z,96459.94
2022-07-26T04:10:21.786Z,96467.97
2022-07-26T04:12:50.378Z,96457.91
2022-07-26T04:15:21.224Z,96456.09
2022-07-26T04:17:49.435Z,96459.00
2022-07-26T04:20:17.421Z,96458.13
2022-07-26T04:22:45.929Z,96460.53
2022-07-26T04:25:14.123Z,96459.81
2022-07-26T04:27:41.887Z,96460.31
2022-07-26T04:30:15.072Z,96458.69
2022-07-26T04:32:46.641Z,96457.38
2022-07-26T04:35:15.335Z,96457.91
2022-07-26T04:37:44.154Z,96463.75
2022-07-26T04:40:14.401Z,96458.84
2022-07-26T04:42:42.252Z,96452.28
2022-07-26T04:45:12.708Z,96462.41
2022-07-26T04:47:42.742Z,96463.84
2022-07-26T04:50:12.672Z,96469.06
2022-07-26T04:52:40.927Z,96461.78
2022-07-26T04:55:10.341Z,96464.31
2022-07-26T04:57:38.173Z,96466.25
2022-07-26T05:00:21.378Z,96461.47
2022-07-26T05:02:50.839Z,96473.59
2022-07-26T05:05:20.700Z,96465.22
2022-07-26T05:07:50.636Z,96468.78
2022-07-26T05:10:19.958Z,96468.75
2022-07-26T05:12:48.716Z,96471.84
2022-07-26T05:15:16.929Z,96477.19
2022-07-26T05:17:44.768Z,96477.34
2022-07-26T05:20:16.816Z,96471.13
2022-07-26T05:22:45.937Z,96476.63
2022-07-26T05:25:13.807Z,96472.28
2022-07-26T05:27:41.831Z,96477.09
2022-07-26T05:30:11.601Z,96479.72
2022-07-26T05:32:39.483Z,96476.78
2022-07-26T05:35:08.752Z,96472.00
2022-07-26T05:37:38.353Z,96481.53
2022-07-26T05:40:09.306Z,96478.94
2022-07-26T05:42:37.098Z,96477.75
2022-07-26T05:45:06.148Z,96485.13
2022-07-26T05:47:34.165Z,96487.56
2022-07-26T05:50:01.964Z,96486.88
2022-07-26T05:52:29.692Z,96496.16
2022-07-26T05:54:57.712Z,96496.66
2022-07-26T05:57:26.837Z,96494.34
2022-07-26T05:59:54.658Z,96493.88
2022-07-26T06:02:22.431Z,96500.47
2022-07-26T06:04:50.276Z,96493.47
2022-07-26T06:07:18.146Z,96494.22
2022-07-26T06:09:46.080Z,96494.59
2022-07-26T06:12:13.837Z,96497.63
2022-07-26T06:14:42.932Z,96493.06
2022-07-26T06:17:10.804Z,96494.81
2022-07-26T06:19:38.563Z,96500.78
2022-07-26T06:22:06.376Z,96501.19
2022-07-26T06:24:34.259Z,96498.56
2022-07-26T06:27:05.161Z,96498.22
2022-07-26T06:29:33.505Z,96496.72
2022-07-26T06:32:02.726Z,96497.13
2022-07-26T06:34:31.006Z,96504.53
2022-07-26T06:36:58.814Z,96502.50
2022-07-26T06:39:26.586Z,96500.03
2022-07-26T06:41:54.317Z,96507.53
2022-07-26T06:44:22.616Z,96497.31
2022-07-26T06:46:50.651Z,96494.94
2022-07-26T06:49:22.677Z,96504.16
2022-07-26T06:51:51.076Z,96502.09
2022-07-26T06:54:18.887Z,96499.09
2022-07-26T06:56:46.612Z,96506.81
2022-07-26T06:59:15.292Z,96501.31
2022-07-26T07:01:55.598Z,96507.84
2022-07-26T07:04:30.049Z,96506.44
2022-07-26T07:07:04.488Z,96509.59
2022-07-26T07:09:34.080Z,96510.94
2022-07-26T07:12:09.726Z,96501.09
2022-07-26T07:14:38.606Z,96508.56
2022-07-26T07:17:12.975Z,96508.34
2022-07-26T07:19:44.163Z,96512.91
2022-07-26T07:22:12.837Z,96504.16
2022-07-26T07:24:41.248Z,96507.53
2022-07-26T07:27:09.223Z,96504.56
2022-07-26T07:29:41.431Z,96507.16
2022-07-26T07:32:18.095Z,96500.00
2022-07-26T07:34:50.648Z,96497.00
2022-07-26T07:37:20.171Z,96503.44
2022-07-26T07:39:50.318Z,96501.91
2022-07-26T07:42:18.960Z,96494.84
2022-07-26T07:44:46.754Z,96500.63
2022-07-26T07:47:14.999Z,96501.28
2022-07-26T07:49:43.085Z,96499.44
2022-07-26T07:52:12.227Z,96511.91
2022-07-26T07:54:40.191Z,96505.31
2022-07-26T07:57:10.315Z,96499.56
2022-07-26T07:59:39.488Z,96513.13
2022-07-26T08:02:08.017Z,96511.72
2022-07-26T08:04:35.875Z,96511.31
2022-07-26T08:07:03.912Z,96508.63
2022-07-26T08:09:33.873Z,96518.50
2022-07-26T08:12:01.943Z,96503.16
2022-07-26T08:14:29.949Z,96499.88
2022-07-26T08:16:57.883Z,96506.22
2022-07-26T08:19:29.273Z,96504.69
2022-07-26T08:22:10.711Z,96510.75
2022-07-26T08:24:40.616Z,96508.50
2022-07-26T08:27:08.515Z,96511.13
2022-07-26T08:29:36.412Z,96516.13
2022-07-26T08:32:04.493Z,96513.50
2022-07-26T08:34:32.361Z,96513.16
2022-07-26T08:37:16.646Z,96508.72
2022-07-26T08:39:48.099Z,96514.28
2022-07-26T08:42:16.850Z,96515.78
2022-07-26T08:44:45.943Z,96510.06
2022-07-26T08:47:14.288Z,96520.81
2022-07-26T08:49:42.967Z,96514.63
2022-07-26T08:52:12.101Z,96515.19
2022-07-26T08:54:44.341Z,96512.91
2022-07-26T08:57:14.249Z,96515.84
2022-07-26T08:59:42.758Z,96509.66
2022-07-26T09:02:12.961Z,96518.97
2022-07-26T09:04:44.632Z,96516.66
2022-07-26T09:07:15.756Z,96513.06
2022-07-26T09:09:59.201Z,96519.38
2022-07-26T09:12:30.593Z,96520.72
2022-07-26T09:14:59.536Z,96519.06
2022-07-26T09:17:39.628Z,96516.00
2022-07-26T09:20:10.024Z,96518.00
2022-07-26T09:22:39.006Z,96519.75
2022-07-26T09:25:21.604Z,96517.72
2022-07-26T09:27:51.234Z,96519.41
2022-07-26T09:30:19.054Z,96523.47
2022-07-26T09:33:01.045Z,96522.06
2022-07-26T09:35:50.349Z,96520.06
2022-07-26T09:38:17.282Z,96527.53
2022-07-26T09:40:46.880Z,96522.97
2022-07-26T09:43:24.638Z,96526.81
2022-07-26T09:46:05.899Z,96521.84
2022-07-26T09:49:07.066Z,96527.81
2022-07-26T09:51:38.852Z,96527.19
2022-07-26T09:54:07.250Z,96528.19
2022-07-26T09:56:46.908Z,96534.00
2022-07-26T09:59:17.257Z,96539.81
2022-07-26T10:01:45.802Z,96530.47
2022-07-26T10:04:14.464Z,96536.75
2022-07-26T10:06:43.206Z,96540.31
2022-07-26T10:09:11.798Z,96537.56
2022-07-26T10:11:43.495Z,96529.84
2022-07-26T10:14:42.507Z,96542.22
2022-07-26T10:17:46.981Z,96533.06
2022-07-26T10:20:43.583Z,96538.19
2022-07-26T10:23:33.684Z,96535.25
2022-07-26T10:26:02.203Z,96533.78
2022-07-26T10:28:31.605Z,96534.34
2022-07-26T10:31:26.608Z,96526.75
2022-07-26T10:33:56.575Z,96527.56
2022-07-26T10:36:27.825Z,96526.88
2022-07-26T10:39:04.028Z,96516.97
2022-07-26T10:41:32.876Z,96519.13
2022-07-26T10:44:20.406Z,96514.56
2022-07-26T10:47:04.352Z,96518.16
2022-07-26T10:49:36.997Z,96519.34
2022-07-26T10:52:13.944Z,96522.94
2022-07-26T10:55:07.104Z,96518.44
2022-07-26T10:57:36.224Z,96521.13
2022-07-26T11:00:12.908Z,96521.63
2022-07-26T11:02:44.301Z,96519.19
2022-07-26T11:05:16.581Z,96504.34
2022-07-26T11:07:56.921Z,96510.88
2022-07-26T11:10:26.562Z,96498.13
2022-07-26T11:13:05.501Z,96507.50
2022-07-26T11:15:34.281Z,96506.47
2022-07-26T11:18:12.879Z,96493.19
2022-07-26T11:20:42.005Z,96493.56
2022-07-26T11:23:27.041Z,96494.44
2022-07-26T11:26:06.916Z,96492.19
2022-07-26T11:28:57.755Z,96492.94
2022-07-26T11:31:55.661Z,96495.50
2022-07-26T11:34:28.046Z,96493.50
2022-07-26T11:36:57.539Z,96486.09
2022-07-26T11:39:28.691Z,96485.22
2022-07-26T11:41:59.149Z,96478.97
2022-07-26T11:44:28.033Z,96482.38
2022-07-26T11:46:57.767Z,96476.06
2022-07-26T11:49:52.156Z,96487.34
2022-07-26T11:52:25.210Z,96479.25
2022-07-26T11:54:54.505Z,96469.69
2022-07-26T11:57:22.681Z,96474.66
2022-07-26T11:59:51.497Z,96478.56
2022-07-26T12:02:22.129Z,96484.78
2022-07-26T12:05:11.449Z,96476.50
2022-07-26T12:07:39.390Z,96483.13
2022-07-26T12:10:07.864Z,96484.56
2022-07-26T12:12:35.846Z,96471.88
2022-07-26T12:15:05.795Z,96480.47
2022-07-26T12:17:35.837Z,96476.91
2022-07-26T12:20:17.429Z,96478.56
2022-07-26T12:22:54.023Z,96472.41
2022-07-26T12:25:26.233Z,96475.09
2022-07-26T12:27:54.162Z,96463.88
2022-07-26T12:30:22.591Z,96466.44
2022-07-26T12:32:52.075Z,96465.28
2022-07-26T12:35:32.196Z,96457.63
2022-07-26T12:38:00.561Z,96459.09
2022-07-26T12:40:29.911Z,96454.53
2022-07-26T12:43:02.237Z,96447.50
2022-07-26T12:45:32.327Z,96455.53
2022-07-26T12:48:01.558Z,96449.97
2022-07-26T12:50:31.606Z,96440.19
2022-07-26T12:53:01.575Z,96440.09
2022-07-26T12:55:29.519Z,96450.28
2022-07-26T12:57:57.316Z,96429.88
2022-07-26T13:00:25.416Z,96436.53
2022-07-26T13:02:54.812Z,96427.72
2022-07-26T13:05:23.010Z,96432.38
2022-07-26T13:07:52.544Z,96421.69
2022-07-26T13:10:36.328Z,96413.97
2022-07-26T13:13:05.193Z,96421.78
2022-07-26T13:15:36.494Z,96417.69
2022-07-26T13:18:07.602Z,96412.13
2022-07-26T13:20:35.601Z,96400.50
2022-07-26T13:23:04.827Z,96398.81
2022-07-26T13:25:40.046Z,96399.44
2022-07-26T13:28:09.163Z,96390.84
2022-07-26T13:30:38.725Z,96395.09
2022-07-26T13:33:06.576Z,96386.31
2022-07-26T13:35:34.337Z,96388.91
2022-07-26T13:38:02.134Z,96394.56
2022-07-26T13:40:32.101Z,96391.03
2022-07-26T13:43:00.273Z,96384.81
2022-07-26T13:45:29.166Z,96391.41
2022-07-26T13:47:57.566Z,96384.66
2022-07-26T13:50:28.778Z,96385.66
2022-07-26T13:52:57.296Z,96389.19
2022-07-26T13:55:26.133Z,96393.59
2022-07-26T13:57:56.854Z,96388.84
2022-07-26T14:00:26.935Z,96385.75
2022-07-26T14:02:55.172Z,96391.56
2022-07-26T14:05:22.958Z,96376.19
2022-07-26T14:07:50.769Z,96366.53
2022-07-26T14:10:19.143Z,96367.91
2022-07-26T14:12:47.847Z,96367.38
2022-07-26T14:15:22.075Z,96367.63
2022-07-26T14:17:51.342Z,96375.19
2022-07-26T14:20:19.043Z,96369.09
2022-07-26T14:22:47.906Z,96365.91
2022-07-26T14:25:15.715Z,96379.41
2022-07-26T14:27:43.557Z,96376.63
2022-07-26T14:30:12.346Z,96381.13
2022-07-26T14:32:41.481Z,96381.53
2022-07-26T14:35:10.228Z,96377.41
2022-07-26T14:37:44.157Z,96382.63
2022-07-26T14:40:14.818Z,96380.44
2022-07-26T14:42:43.546Z,96380.09
2022-07-26T14:45:12.405Z,96377.16
2022-07-26T14:47:41.792Z,96374.41
2022-07-26T14:50:11.406Z,96368.81
2022-07-26T14:52:39.967Z,96363.56
2022-07-26T14:55:08.750Z,96363.72
2022-07-26T14:57:39.279Z,96347.88
2022-07-26T15:00:10.765Z,96354.38
2022-07-26T15:02:41.641Z,96350.56
2022-07-26T15:05:10.740Z,96344.88
2022-07-26T15:07:40.456Z,96347.13
2022-07-26T15:10:09.582Z,96345.47
2022-07-26T15:12:38.048Z,96349.69
2022-07-26T15:15:07.201Z,96337.75
2022-07-26T15:17:35.353Z,96353.25
2022-07-26T15:20:06.263Z,96350.91
2022-07-26T15:22:34.224Z,96336.94
2022-07-26T15:25:01.961Z,96332.13
2022-07-26T15:27:29.640Z,96324.84
2022-07-26T15:30:03.479Z,96330.66
2022-07-26T15:32:32.723Z,96325.63
2022-07-26T15:35:00.549Z,96324.94
2022-07-26T15:37:29.918Z,96328.63
2022-07-26T15:39:57.897Z,96324.25
2022-07-26T15:42:25.678Z,96312.59
2022-07-26T15:44:53.451Z,96323.44
2022-07-26T15:47:51.262Z,96322.38
2022-07-26T15:50:11.730Z,96320.63
2022-07-26T15:52:45.139Z,96321.88
2022-07-26T15:55:14.849Z,96325.38
2022-07-26T15:57:42.549Z,96324.28
2022-07-26T16:00:12.334Z,96320.97
2022-07-26T16:02:42.280Z,96321.31
2022-07-26T16:05:11.357Z,96318.41
2022-07-26T16:07:41.654Z,96320.94
2022-07-26T16:10:11.093Z,96317.97
2022-07-26T16:12:39.245Z,96314.84
2022-07-26T16:15:08.748Z,96315.22
2022-07-26T16:17:37.106Z,96312.66
2022-07-26T16:20:07.497Z,96313.38
2022-07-26T16:22:35.838Z,96306.00
2022-07-26T16:25:06.767Z,96310.81
2022-07-26T16:27:34.834Z,96311.84
2022-07-26T16:30:02.584Z,96311.19
2022-07-26T16:32:30.397Z,96315.03
2022-07-26T16:34:58.138Z,96306.91
2022-07-26T16:37:25.882Z,96303.34
2022-07-26T16:39:55.562Z,96306.03
2022-07-26T16:42:24.896Z,96296.31
2022-07-26T16:44:52.742Z,96296.59
2022-07-26T16:47:20.513Z,96292.59
2022-07-26T16:49:48.437Z,96300.25
2022-07-26T16:52:16.563Z,96296.44
2022-07-26T16:54:44.587Z,96293.41
2022-07-26T16:57:12.378Z,96296.31
2022-07-26T16:59:41.536Z,96295.00
2022-07-26T17:02:09.791Z,96294.75
2022-07-26T17:04:37.772Z,96298.56
2022-07-26T17:07:24.589Z,96301.25
2022-07-26T17:09:53.142Z,96298.56
2022-07-26T17:12:20.886Z,96303.72
2022-07-26T17:14:50.031Z,96299.25
2022-07-26T17:17:17.832Z,96296.22
2022-07-26T17:19:45.574Z,96296.53
2022-07-26T17:22:13.649Z,96294.09
2022-07-26T17:24:41.405Z,96291.31
2022-07-26T17:27:09.540Z,96289.47
2022-07-26T17:29:37.287Z,96294.81
2022-07-26T17:32:07.474Z,96288.44
2022-07-26T17:34:35.260Z,96292.00
2022-07-26T17:37:05.821Z,96296.59
2022-07-26T17:39:51.654Z,96296.44
2022-07-26T17:42:21.565Z,96295.72
2022-07-26T17:44:49.992Z,96287.66
2022-07-26T17:47:29.488Z,96290.81
2022-07-26T17:50:14.165Z,96283.69
2022-07-26T17:52:47.864Z,96289.06
2022-07-26T17:55:16.080Z,96286.34
2022-07-26T17:57:43.966Z,96290.53
2022-07-26T18:00:12.752Z,96277.75
2022-07-26T18:02:41.954Z,96279.53
2022-07-26T18:05:11.024Z,96287.06
2022-07-26T18:07:39.074Z,96298.75
2022-07-26T18:10:07.822Z,96294.22
2022-07-26T18:12:35.864Z,96298.88
2022-07-26T18:15:03.729Z,96287.03
2022-07-26T18:17:31.471Z,96301.56
2022-07-26T18:20:00.601Z,96295.94
2022-07-26T18:22:28.448Z,96297.72
2022-07-26T18:24:56.215Z,96297.66
2022-07-26T18:27:28.080Z,96293.28
2022-07-26T18:29:55.770Z,96302.81
2022-07-26T18:32:23.688Z,96291.69
2022-07-26T18:34:52.593Z,96303.00
2022-07-26T18:37:22.535Z,96310.91
2022-07-26T18:39:55.490Z,96311.16
2022-07-26T18:42:25.269Z,96309.06
2022-07-26T18:44:53.126Z,96308.31
2022-07-26T18:47:20.913Z,96309.72
2022-07-26T18:49:48.718Z,96309.38
2022-07-26T18:52:18.022Z,96314.53
2022-07-26T18:55:01.967Z,96311.88
2022-07-26T18:57:29.732Z,96318.38
2022-07-26T18:59:57.499Z,96321.75
2022-07-26T19:02:25.634Z,96318.38
2022-07-26T19:04:53.593Z,96314.16
2022-07-26T19:07:21.315Z,96320.38
2022-07-26T19:09:49.208Z,96325.38
2022-07-26T19:12:18.323Z,96335.38
2022-07-26T19:14:46.161Z,96333.34
2022-07-26T19:17:13.865Z,96339.72
2022-07-26T19:19:42.885Z,96348.19
2022-07-26T19:22:10.633Z,96351.72
2022-07-26T19:24:38.419Z,96346.19
2022-07-26T19:27:06.236Z,96353.53
2022-07-26T19:29:35.400Z,96354.72
2022-07-26T19:32:03.228Z,96350.53
2022-07-26T19:34:31.056Z,96360.97
2022-07-26T19:36:58.760Z,96368.84
2022-07-26T19:39:26.952Z,96357.84
2022-07-26T19:41:54.726Z,96367.63
2022-07-26T19:44:22.520Z,96370.56
2022-07-26T19:46:56.998Z,96365.81
2022-07-26T19:49:25.515Z,96368.03
2022-07-26T19:51:53.352Z,96374.28
2022-07-26T19:54:21.287Z,96365.22
2022-07-26T19:56:49.109Z,96371.16
2022-07-26T19:59:22.631Z,96374.47
2022-07-26T20:01:56.594Z,96373.50
2022-07-26T20:04:26.486Z,96374.91
2022-07-26T20:06:55.130Z,96373.06
2022-07-26T20:09:23.118Z,96370.44
2022-07-26T20:11:51.761Z,96376.91
2022-07-26T20:14:20.500Z,96371.38
2022-07-26T20:16:51.693Z,96375.28
2022-07-26T20:19:28.044Z,96375.28
2022-07-26T20:21:56.241Z,96379.13
2022-07-26T20:24:24.051Z,96378.13
2022-07-26T20:26:51.788Z,96381.94
2022-07-26T20:29:19.534Z,96379.31
2022-07-26T20:31:47.214Z,96390.63
2022-07-26T20:34:15.035Z,96391.78
2022-07-26T20:36:44.198Z,96393.59
2022-07-26T20:39:12.386Z,96388.94
2022-07-26T20:41:40.291Z,96391.31
2022-07-26T20:44:08.615Z,96394.25
2022-07-26T20:46:39.997Z,96400.84
2022-07-26T20:49:09.006Z,96386.91
2022-07-26T20:51:37.630Z,96389.53
2022-07-26T20:54:08.529Z,96376.66
2022-07-26T20:56:36.366Z,96380.38
2022-07-26T20:59:05.066Z,96379.75
2022-07-26T21:01:34.125Z,96381.53
2022-07-26T21:04:02.141Z,96386.38
2022-07-26T21:06:29.920Z,96384.50
2022-07-26T21:08:57.956Z,96387.50
2022-07-26T21:11:27.270Z,96381.03
2022-07-26T21:13:55.081Z,96387.56
2022-07-26T21:16:22.918Z,96385.97
2022-07-26T21:18:53.127Z,96391.22
2022-07-26T21:21:22.153Z,96394.13
2022-07-26T21:23:49.951Z,96394.84
2022-07-26T21:26:17.751Z,96402.50
2022-07-26T21:28:46.866Z,96396.44
2022-07-26T21:31:14.710Z,96402.31
2022-07-26T21:33:44.147Z,96406.53
2022-07-26T21:36:11.941Z,96409.13
2022-07-26T21:38:39.682Z,96412.53
2022-07-26T21:41:07.404Z,96406.28
2022-07-26T21:43:35.181Z,96411.56
2022-07-26T21:46:10.366Z,96407.94
2022-07-26T21:48:40.271Z,96408.13
2022-07-26T21:51:08.215Z,96413.84
2022-07-26T21:53:35.941Z,96416.91
2022-07-26T21:56:05.529Z,96412.41
2022-07-26T21:58:36.629Z,96412.94
2022-07-26T22:01:07.395Z,96421.09
2022-07-26T22:03:36.506Z,96421.09
2022-07-26T22:06:07.486Z,96421.19
2022-07-26T22:08:35.773Z,96422.78
2022-07-26T22:11:03.584Z,96421.88
2022-07-26T22:13:31.769Z,96424.94
2022-07-26T22:15:59.721Z,96416.44
2022-07-26T22:18:28.943Z,96424.69
2022-07-26T22:20:57.071Z,96416.31
2022-07-26T22:23:29.980Z,96420.88
2022-07-26T22:25:58.230Z,96421.88
2022-07-26T22:28:26.069Z,96417.69
2022-07-26T22:30:54.556Z,96419.44
2022-07-26T22:33:22.536Z,96411.78
2022-07-26T22:35:51.804Z,96417.38
2022-07-26T22:38:20.209Z,96417.16
2022-07-26T22:40:48.062Z,96419.44
2022-07-26T22:43:15.925Z,96422.31
2022-07-26T22:45:43.925Z,96418.56
2022-07-26T22:48:11.740Z,96423.44
2022-07-26T22:50:39.615Z,96423.94
2022-07-26T22:53:08.727Z,96422.28
2022-07-26T22:55:36.493Z,96425.16
2022-07-26T22:58:04.299Z,96420.69
2022-07-26T23:00:32.449Z,96422.06
2022-07-26T23:03:00.245Z,96423.59
2022-07-26T23:05:45.381Z,96412.44
2022-07-26T23:11:04.128Z,96412.44
2022-07-26T23:13:32.119Z,96418.09
2022-07-26T23:16:01.222Z,96424.19
2022-07-26T23:18:29.735Z,96416.94
2022-07-26T23:20:57.552Z,96413.69
2022-07-26T23:23:29.479Z,96405.75
2022-07-26T23:25:59.130Z,96416.31
2022-07-26T23:28:35.798Z,96410.00
2022-07-26T23:31:06.115Z,96419.16
2022-07-26T23:33:51.731Z,96424.34
2022-07-26T23:36:25.626Z,96427.28
2022-07-26T23:38:55.305Z,96426.28
2022-07-26T23:41:23.166Z,96423.00
2022-07-26T23:43:51.742Z,96421.03
2022-07-26T23:46:19.605Z,96425.06
2022-07-26T23:48:47.820Z,96421.13
2022-07-26T23:51:15.771Z,96418.03
2022-07-26T23:53:43.580Z,96417.00
2022-07-26T23:56:12.812Z,96421.78
2022-07-26T23:58:40.544Z,96415.91
